Arbúcies





Hora UTC 02:00
Temperatura 16.0 ºC
Humitat 46.8 %
Pressió 1011.0 hPa
Pluja 0.0 mm
Velocitat vent 2.0 km/h
Direcció vent W
Radiació solar 0.0 W/m²

Dades diàries 2022-05-23



Hora UTC (hivern +1h; estiu +2h)
Temperatura (ºC) Humitat (%) Pressió (hPa) Velocitat vent (km/h) Precipitació (mm) Radiació solar (W/m²)
Hora UTC Aire Humitat Pressió Vel. Dir. Vel. Max Dir. Intent. màx 5 min. Rad. Sol.
00:05 16.4 47.9 1012.0 3.0 SW 7.8 SW 0.0 0.0
00:10 16.6 44.4 1012.0 3.7 WSW 9.2 SW 0.0 0.0
00:15 16.5 46.5 1012.0 3.4 W 7.1 SW 0.0 0.0
00:20 16.3 47.3 1012.0 4.3 SW 9.2 SSW 0.0 0.0
00:25 16.3 47.1 1012.0 1.7 W 6.4 SW 0.0 0.0
00:30 16.0 48.9 1012.0 2.9 WSW 8.8 SW 0.0 0.0
00:35 15.8 48.7 1012.0 5.4 SW 8.5 SW 0.0 0.0
00:40 15.8 49.5 1012.0 4.0 WSW 8.8 WSW 0.0 0.0
00:45 15.7 49.6 1012.0 4.6 SW 10.2 SW 0.0 0.0
00:50 15.6 50.0 1011.0 4.3 WSW 8.5 SW 0.0 0.0
00:55 15.6 50.5 1012.0 3.5 SW 6.0 SW 0.0 0.0
01:00 15.6 50.1 1011.0 3.0 SW 6.4 SW 0.0 0.0
01:05 15.7 50.0 1011.0 4.3 SW 10.6 SW 0.0 0.1
01:10 15.8 49.8 1011.0 2.0 WSW 9.5 SW 0.0 0.0
01:15 16.0 48.0 1011.0 3.6 SW 8.8 SW 0.0 0.0
01:20 16.1 47.0 1011.0 5.1 SSW 9.9 SSW 0.0 0.0
01:25 16.6 46.6 1012.0 6.4 W 12.3 SSW 0.0 0.0
01:30 16.4 46.1 1011.0 5.5 WSW 10.9 WSW 0.0 0.0
01:35 16.7 44.3 1011.0 5.2 SW 9.9 SSW 0.0 0.0
01:40 16.6 45.9 1011.0 3.2 SSW 9.5 SW 0.0 0.0
01:45 16.4 46.4 1011.0 1.4 WSW 8.1 SW 0.0 0.0
01:50 16.2 45.8 1011.0 1.9 SSW 6.7 SSW 0.0 0.0
01:55 16.1 47.5 1012.0 3.7 SW 5.3 W 0.0 0.0
02:00 16.0 46.8 1011.0 2.0 W 4.6 WSW 0.0 0.0
Màxima 16.7 50.5 1012.0 6.4 W 12.3 SSW 0.0 0.1
Mínima 15.6 44.3 1011.0
Total 0.0